createdAt,value
2022-11-30T00:01:36.041Z,16.20
2022-11-30T00:04:24.498Z,15.27
2022-11-30T00:07:13.144Z,16.90
2022-11-30T00:10:01.522Z,13.57
2022-11-30T00:12:51.459Z,17.13
2022-11-30T00:15:39.897Z,13.83
2022-11-30T00:18:29.870Z,16.77
2022-11-30T00:21:18.332Z,15.23
2022-11-30T00:24:07.623Z,18.40
2022-11-30T00:26:56.053Z,15.60
2022-11-30T00:29:45.789Z,15.70
2022-11-30T00:32:34.206Z,16.40
2022-11-30T00:35:22.602Z,16.53
2022-11-30T00:38:10.984Z,13.57
2022-11-30T00:40:59.393Z,14.60
2022-11-30T00:43:48.011Z,16.27
2022-11-30T00:46:37.761Z,17.63
2022-11-30T00:49:26.195Z,13.00
2022-11-30T00:52:15.358Z,13.70
2022-11-30T00:55:04.399Z,13.63
2022-11-30T00:57:53.059Z,13.73
2022-11-30T01:00:41.706Z,16.87
2022-11-30T01:03:31.410Z,14.07
2022-11-30T01:06:19.916Z,13.37
2022-11-30T01:09:09.136Z,15.77
2022-11-30T01:11:57.485Z,14.97
2022-11-30T01:14:46.169Z,14.73
2022-11-30T01:17:34.969Z,14.40
2022-11-30T01:20:24.705Z,13.30
2022-11-30T01:23:13.145Z,12.97
2022-11-30T01:26:01.537Z,13.30
2022-11-30T01:28:51.562Z,14.97
2022-11-30T01:31:39.981Z,13.97
2022-11-30T01:34:28.399Z,13.70
2022-11-30T01:37:18.176Z,14.03
2022-11-30T01:40:08.440Z,15.23
2022-11-30T01:42:56.850Z,13.37
2022-11-30T01:45:45.301Z,13.37
2022-11-30T01:48:33.713Z,16.23
2022-11-30T01:51:22.072Z,15.30
2022-11-30T01:54:13.237Z,14.40
2022-11-30T01:57:04.238Z,15.67
2022-11-30T01:59:54.172Z,16.23
2022-11-30T02:02:48.819Z,16.07
2022-11-30T02:05:38.946Z,15.30
2022-11-30T02:08:27.483Z,12.57
2022-11-30T02:11:17.381Z,15.50
2022-11-30T02:14:15.739Z,14.90
2022-11-30T02:17:12.501Z,15.10
2022-11-30T02:20:57.363Z,15.30
2022-11-30T02:24:13.224Z,14.13
2022-11-30T02:27:14.845Z,14.47
2022-11-30T02:30:06.397Z,12.90
2022-11-30T02:32:57.642Z,15.27
2022-11-30T02:35:54.538Z,15.73
2022-11-30T02:38:43.614Z,17.73
2022-11-30T02:41:38.423Z,19.57
2022-11-30T02:44:26.890Z,17.97
2022-11-30T02:47:22.582Z,13.50
2022-11-30T02:50:14.411Z,14.33
2022-11-30T02:53:02.806Z,15.57
2022-11-30T02:55:51.189Z,11.40
2022-11-30T02:58:39.713Z,13.60
2022-11-30T03:01:28.315Z,13.13
2022-11-30T03:04:18.137Z,13.93
2022-11-30T03:07:06.698Z,13.77
2022-11-30T03:09:55.241Z,12.80
2022-11-30T03:12:43.677Z,14.23
2022-11-30T03:15:32.160Z,14.27
2022-11-30T03:18:20.569Z,15.83
2022-11-30T03:21:11.116Z,14.43
2022-11-30T03:23:59.597Z,16.03
2022-11-30T03:26:47.979Z,12.97
2022-11-30T03:29:36.406Z,14.20
2022-11-30T03:32:25.017Z,15.23
2022-11-30T03:35:13.614Z,15.93
2022-11-30T03:38:03.307Z,15.33
2022-11-30T03:40:51.719Z,13.57
2022-11-30T03:43:40.095Z,14.17
2022-11-30T03:46:28.497Z,19.50
2022-11-30T03:49:16.919Z,15.03
2022-11-30T03:52:05.653Z,14.97
2022-11-30T03:54:55.450Z,14.83
2022-11-30T03:57:43.854Z,12.90
2022-11-30T04:00:32.270Z,14.17
2022-11-30T04:03:20.651Z,15.80
2022-11-30T04:06:10.398Z,13.37
2022-11-30T04:08:58.768Z,15.00
2022-11-30T04:11:48.498Z,14.03
2022-11-30T04:14:36.886Z,15.47
2022-11-30T04:17:25.279Z,15.63
2022-11-30T04:20:14.088Z,17.30
2022-11-30T04:23:02.467Z,15.07
2022-11-30T04:25:51.843Z,16.13
2022-11-30T04:28:41.805Z,12.93
2022-11-30T04:31:30.430Z,16.10
2022-11-30T04:34:18.872Z,13.63
2022-11-30T04:37:07.575Z,15.17
2022-11-30T04:39:56.006Z,14.33
2022-11-30T04:42:44.424Z,16.13
2022-11-30T04:45:35.742Z,14.70
2022-11-30T04:48:24.519Z,17.80
2022-11-30T04:51:12.994Z,16.87
2022-11-30T04:54:01.420Z,16.93
2022-11-30T04:56:49.990Z,16.27
2022-11-30T04:59:38.361Z,16.50
2022-11-30T05:02:30.049Z,14.63
2022-11-30T05:05:18.657Z,18.63
2022-11-30T05:08:07.224Z,14.33
2022-11-30T05:10:55.867Z,16.93
2022-11-30T05:13:44.233Z,17.87
2022-11-30T05:16:32.690Z,21.70
2022-11-30T05:19:22.454Z,21.63
2022-11-30T05:22:10.854Z,26.37
2022-11-30T05:24:59.229Z,19.30
2022-11-30T05:27:47.586Z,29.80
2022-11-30T05:30:35.987Z,17.80
2022-11-30T05:33:24.373Z,21.37
2022-11-30T05:36:14.116Z,17.53
2022-11-30T05:39:02.500Z,19.93
2022-11-30T05:41:50.932Z,19.73
2022-11-30T05:44:39.363Z,16.90
2022-11-30T05:47:27.760Z,19.03
2022-11-30T05:50:16.423Z,18.80
2022-11-30T05:53:06.196Z,18.40
2022-11-30T05:55:54.707Z,21.80
2022-11-30T05:58:43.130Z,16.77
2022-11-30T06:01:31.622Z,16.77
2022-11-30T06:04:20.030Z,15.17
2022-11-30T06:07:11.811Z,16.43
2022-11-30T06:10:01.595Z,38.57
2022-11-30T06:12:50.204Z,17.40
2022-11-30T06:15:38.754Z,21.33
2022-11-30T06:18:27.143Z,18.93
2022-11-30T06:21:19.639Z,26.17
2022-11-30T06:24:11.232Z,26.40
2022-11-30T06:27:00.960Z,18.20
2022-11-30T06:29:49.389Z,17.90
2022-11-30T06:32:37.976Z,19.47
2022-11-30T06:35:26.539Z,17.70
2022-11-30T06:38:14.897Z,18.67
2022-11-30T06:41:06.787Z,13.30
2022-11-30T06:43:56.604Z,13.10
2022-11-30T06:46:45.039Z,22.03
2022-11-30T06:49:33.502Z,16.43
2022-11-30T06:52:23.822Z,18.73
2022-11-30T06:55:29.073Z,17.83
2022-11-30T06:58:37.204Z,15.57
2022-11-30T07:01:30.241Z,14.87
2022-11-30T07:03:58.394Z,14.40
2022-11-30T07:06:26.598Z,11.77
2022-11-30T07:08:54.718Z,10.07
2022-11-30T07:11:22.902Z,10.87
2022-11-30T07:13:50.983Z,9.90
2022-11-30T07:16:19.150Z,9.40
2022-11-30T07:18:48.649Z,12.00
2022-11-30T07:21:16.746Z,11.20
2022-11-30T07:24:02.376Z,11.67
2022-11-30T07:26:30.546Z,10.63
2022-11-30T07:28:59.056Z,12.67
2022-11-30T07:31:28.828Z,10.13
2022-11-30T07:33:59.630Z,10.57
2022-11-30T07:36:29.575Z,12.57
2022-11-30T07:38:57.697Z,11.30
2022-11-30T07:41:26.079Z,17.37
2022-11-30T07:43:54.171Z,11.60
2022-11-30T07:46:22.368Z,11.13
2022-11-30T07:48:50.692Z,12.10
2022-11-30T07:51:21.232Z,33.40
2022-11-30T07:53:49.743Z,14.67
2022-11-30T07:56:19.936Z,19.07
2022-11-30T07:58:48.584Z,13.20
2022-11-30T08:01:18.532Z,13.60
2022-11-30T08:03:47.108Z,14.83
2022-11-30T08:06:17.110Z,15.43
2022-11-30T08:08:47.034Z,15.37
2022-11-30T08:11:16.551Z,15.93
2022-11-30T08:13:44.945Z,13.47
2022-11-30T08:16:15.268Z,15.37
2022-11-30T08:18:43.609Z,13.57
2022-11-30T08:21:13.122Z,15.67
2022-11-30T08:23:42.727Z,21.80
2022-11-30T08:26:14.470Z,30.23
2022-11-30T08:28:42.916Z,25.87
2022-11-30T08:31:13.303Z,18.40
2022-11-30T08:33:41.618Z,22.47
2022-11-30T08:36:10.371Z,21.43
2022-11-30T08:38:38.684Z,24.80
2022-11-30T08:41:07.400Z,21.20
2022-11-30T08:43:36.922Z,23.17
2022-11-30T08:46:21.594Z,25.17
2022-11-30T08:49:12.880Z,27.03
2022-11-30T08:52:15.315Z,29.43
2022-11-30T08:54:32.300Z,36.77
2022-11-30T08:57:00.454Z,25.37
2022-11-30T08:59:32.171Z,23.23
2022-11-30T09:02:00.353Z,26.03
2022-11-30T09:04:28.609Z,29.37
2022-11-30T09:06:59.030Z,22.83
2022-11-30T09:09:27.460Z,21.13
2022-11-30T09:11:55.602Z,20.00
2022-11-30T09:14:23.902Z,22.90
2022-11-30T09:16:54.048Z,23.13
2022-11-30T09:19:22.269Z,23.50
2022-11-30T09:21:52.259Z,32.87
2022-11-30T09:24:20.927Z,60.17
2022-11-30T09:26:49.140Z,27.63
2022-11-30T09:29:17.262Z,28.53
2022-11-30T09:31:45.557Z,28.83
2022-11-30T09:34:15.028Z,25.10
2022-11-30T09:36:43.201Z,27.70
2022-11-30T09:39:12.649Z,23.17
2022-11-30T09:42:14.944Z,27.57
2022-11-30T09:44:50.599Z,27.73
2022-11-30T09:47:43.377Z,24.27
2022-11-30T09:50:15.629Z,24.70
2022-11-30T09:52:47.609Z,26.77
2022-11-30T09:55:22.525Z,26.00
2022-11-30T09:57:53.233Z,22.70
2022-11-30T10:00:23.144Z,21.87
2022-11-30T10:02:52.250Z,19.30
2022-11-30T10:05:23.667Z,22.77
2022-11-30T10:08:18.207Z,19.00
2022-11-30T10:10:52.438Z,19.03
2022-11-30T10:13:44.916Z,19.80
2022-11-30T10:16:17.315Z,17.73
2022-11-30T10:18:51.792Z,17.83
2022-11-30T10:21:33.769Z,16.97
2022-11-30T10:24:13.543Z,17.50
2022-11-30T10:26:44.301Z,13.20
2022-11-30T10:29:18.850Z,13.13
2022-11-30T10:31:48.368Z,14.77
2022-11-30T10:34:21.679Z,15.27
2022-11-30T10:36:54.869Z,15.17
2022-11-30T10:39:27.386Z,44.93
2022-11-30T10:42:00.190Z,15.67
2022-11-30T10:44:29.874Z,17.80
2022-11-30T10:47:01.453Z,13.37
2022-11-30T10:49:30.382Z,16.87
2022-11-30T10:52:02.466Z,49.57
2022-11-30T10:54:30.942Z,85.20
2022-11-30T10:57:00.996Z,40.33
2022-11-30T10:59:36.433Z,30.30
2022-11-30T11:02:06.869Z,79.43
2022-11-30T11:04:35.165Z,71.07
2022-11-30T11:07:10.011Z,31.13
2022-11-30T11:09:39.845Z,18.77
2022-11-30T11:12:14.927Z,12.63
2022-11-30T11:14:43.158Z,17.77
2022-11-30T11:17:23.481Z,13.37
2022-11-30T11:19:52.091Z,10.67
2022-11-30T11:22:22.700Z,10.77
2022-11-30T11:24:52.027Z,11.27
2022-11-30T11:27:27.495Z,14.63
2022-11-30T11:30:03.046Z,13.23
2022-11-30T11:32:31.406Z,10.37
2022-11-30T11:34:59.589Z,14.10
2022-11-30T11:37:31.482Z,10.27
2022-11-30T11:40:06.198Z,9.57
2022-11-30T11:42:38.375Z,9.80
2022-11-30T11:45:07.911Z,9.70
2022-11-30T11:47:41.279Z,10.93
2022-11-30T11:51:04.444Z,10.67
2022-11-30T11:53:24.974Z,10.23
2022-11-30T11:55:56.731Z,8.70
2022-11-30T11:58:33.893Z,8.70
2022-11-30T12:01:31.458Z,7.87
2022-11-30T12:04:01.777Z,9.13
2022-11-30T12:06:29.996Z,8.60
2022-11-30T12:09:01.890Z,8.73
2022-11-30T12:11:32.907Z,9.40
2022-11-30T12:14:01.744Z,7.03
2022-11-30T12:16:38.085Z,8.23
2022-11-30T12:19:13.509Z,7.50
2022-11-30T12:21:52.647Z,8.83
2022-11-30T12:24:49.179Z,9.57
2022-11-30T12:27:23.485Z,11.07
2022-11-30T12:30:00.702Z,12.90
2022-11-30T12:32:35.823Z,11.33
2022-11-30T12:35:14.526Z,11.33
2022-11-30T12:37:51.403Z,7.90
2022-11-30T12:40:31.081Z,10.47
2022-11-30T12:43:05.769Z,8.20
2022-11-30T12:45:37.266Z,8.90
2022-11-30T12:48:17.214Z,7.60
2022-11-30T12:50:53.326Z,7.10
2022-11-30T12:53:24.930Z,7.20
2022-11-30T12:56:04.718Z,6.70
2022-11-30T12:58:41.640Z,5.70
2022-11-30T13:01:20.221Z,6.23
2022-11-30T13:04:00.233Z,5.60
2022-11-30T13:06:31.252Z,5.70
2022-11-30T13:09:02.219Z,5.30
2022-11-30T13:11:35.893Z,6.00
2022-11-30T13:14:05.104Z,5.03
2022-11-30T13:16:33.337Z,6.03
2022-11-30T13:19:16.488Z,5.73
2022-11-30T13:21:50.260Z,6.10
2022-11-30T13:24:23.596Z,6.57
2022-11-30T13:26:55.976Z,5.57
2022-11-30T13:29:52.342Z,5.43
2022-11-30T13:32:56.268Z,6.67
2022-11-30T13:35:42.491Z,7.03
2022-11-30T13:41:08.307Z,8.37
2022-11-30T13:43:40.707Z,6.07
2022-11-30T13:46:17.199Z,6.47
2022-11-30T13:48:45.707Z,5.03
2022-11-30T13:51:14.048Z,6.93
2022-11-30T13:53:42.360Z,4.83
2022-11-30T13:56:34.071Z,4.87
2022-11-30T13:59:36.229Z,5.70
2022-11-30T14:02:53.764Z,5.93
2022-11-30T14:05:24.796Z,5.20
2022-11-30T14:08:37.039Z,5.10
2022-11-30T14:11:40.141Z,5.53
2022-11-30T14:14:47.212Z,4.93
2022-11-30T14:17:21.136Z,6.80
2022-11-30T14:19:52.013Z,5.60
2022-11-30T14:22:20.198Z,6.40
2022-11-30T14:24:49.176Z,5.00
2022-11-30T14:27:21.549Z,4.73
2022-11-30T14:29:53.642Z,4.73
2022-11-30T14:32:30.972Z,5.20
2022-11-30T14:35:08.837Z,6.80
2022-11-30T14:37:42.393Z,4.77
2022-11-30T14:40:19.057Z,5.57
2022-11-30T14:42:52.372Z,4.40
2022-11-30T14:45:23.762Z,5.10
2022-11-30T14:47:53.697Z,5.27
2022-11-30T14:50:25.154Z,5.97
2022-11-30T14:53:04.329Z,5.23
2022-11-30T14:55:36.388Z,5.17
2022-11-30T14:58:14.353Z,6.67
2022-11-30T15:00:44.874Z,4.77
2022-11-30T15:03:21.440Z,4.93
2022-11-30T15:05:52.810Z,4.70
2022-11-30T15:08:20.905Z,4.80
2022-11-30T15:10:49.024Z,5.60
2022-11-30T15:13:18.516Z,4.43
2022-11-30T15:15:55.020Z,4.83
2022-11-30T15:18:23.643Z,5.17
2022-11-30T15:20:55.776Z,4.67
2022-11-30T15:23:24.088Z,4.90
2022-11-30T15:25:53.575Z,6.90
2022-11-30T15:28:24.092Z,6.63
2022-11-30T15:30:56.405Z,6.23
2022-11-30T15:33:25.179Z,7.13
2022-11-30T15:36:18.807Z,7.47
2022-11-30T15:38:44.894Z,7.50
2022-11-30T15:41:19.434Z,8.80
2022-11-30T15:43:51.308Z,7.73
2022-11-30T15:46:36.829Z,21.37
2022-11-30T15:49:17.886Z,9.37
2022-11-30T15:51:47.117Z,612.00
2022-11-30T15:54:15.483Z,771.70
2022-11-30T15:56:55.928Z,289.03
2022-11-30T15:59:25.426Z,729.10
2022-11-30T16:02:02.011Z,150.90
2022-11-30T16:04:30.812Z,59.13
2022-11-30T16:06:58.935Z,29.53
2022-11-30T16:09:32.408Z,18.43
2022-11-30T16:12:02.563Z,12.40
2022-11-30T16:14:31.032Z,11.83
2022-11-30T16:17:04.174Z,11.53
2022-11-30T16:19:36.777Z,11.20
2022-11-30T16:22:04.935Z,13.97
2022-11-30T16:24:33.124Z,10.73
2022-11-30T16:27:01.253Z,11.20
2022-11-30T16:29:29.428Z,12.73
2022-11-30T16:31:57.603Z,11.87
2022-11-30T16:34:27.199Z,12.00
2022-11-30T16:36:55.382Z,13.20
2022-11-30T16:39:23.525Z,14.53
2022-11-30T16:41:51.725Z,11.97
2022-11-30T16:44:19.834Z,11.67
2022-11-30T16:46:48.652Z,11.47
2022-11-30T16:49:16.805Z,11.73
2022-11-30T16:51:46.269Z,11.87
2022-11-30T16:54:15.552Z,13.80
2022-11-30T16:56:43.889Z,11.43
2022-11-30T16:59:16.403Z,10.97
2022-11-30T17:01:47.241Z,12.20
2022-11-30T17:04:17.869Z,12.27
2022-11-30T17:06:50.542Z,11.87
2022-11-30T17:09:20.244Z,10.60
2022-11-30T17:11:50.344Z,12.33
2022-11-30T17:14:18.935Z,11.63
2022-11-30T17:16:47.130Z,10.97
2022-11-30T17:19:15.488Z,13.60
2022-11-30T17:21:44.585Z,12.47
2022-11-30T17:24:14.323Z,11.77
2022-11-30T17:26:42.560Z,11.80
2022-11-30T17:29:10.677Z,10.87
2022-11-30T17:31:38.790Z,11.83
2022-11-30T17:34:08.494Z,12.23
2022-11-30T17:36:36.706Z,10.40
2022-11-30T17:39:06.848Z,11.87
2022-11-30T17:41:36.347Z,10.10
2022-11-30T17:44:04.528Z,12.00
2022-11-30T17:46:32.716Z,13.07
2022-11-30T17:49:00.897Z,11.13
2022-11-30T17:51:29.135Z,13.23
2022-11-30T17:53:57.354Z,12.13
2022-11-30T17:56:25.949Z,9.40
2022-11-30T17:58:55.459Z,7.87
2022-11-30T18:01:25.040Z,9.47
2022-11-30T18:03:53.624Z,9.40
2022-11-30T18:06:21.878Z,10.47
2022-11-30T18:08:50.006Z,7.83
2022-11-30T18:11:20.150Z,7.43
2022-11-30T18:13:48.456Z,6.47
2022-11-30T18:16:19.137Z,6.77
2022-11-30T18:18:48.622Z,6.70
2022-11-30T18:21:18.754Z,6.17
2022-11-30T18:23:47.162Z,7.00
2022-11-30T18:26:17.755Z,6.07
2022-11-30T18:28:45.914Z,6.07
2022-11-30T18:31:14.123Z,7.17
2022-11-30T18:33:43.672Z,8.47
2022-11-30T18:36:11.863Z,7.87
2022-11-30T18:38:41.506Z,6.70
2022-11-30T18:41:09.664Z,7.70
2022-11-30T18:43:38.837Z,7.40
2022-11-30T18:46:08.678Z,8.30
2022-11-30T18:48:37.052Z,7.73
2022-11-30T18:51:12.588Z,8.43
2022-11-30T18:53:40.745Z,7.50
2022-11-30T18:56:10.981Z,6.33
2022-11-30T18:58:39.137Z,8.47
2022-11-30T19:01:09.321Z,7.80
2022-11-30T19:03:37.974Z,9.40
2022-11-30T19:06:06.912Z,7.73
2022-11-30T19:08:36.609Z,8.13
2022-11-30T19:11:05.593Z,9.23
2022-11-30T19:13:34.103Z,7.80
2022-11-30T19:16:03.389Z,8.53
2022-11-30T19:18:31.481Z,8.27
2022-11-30T19:20:59.811Z,8.83
2022-11-30T19:23:28.105Z,9.07
2022-11-30T19:26:02.112Z,17.00
2022-11-30T19:28:30.768Z,16.83
2022-11-30T19:30:59.000Z,12.23
2022-11-30T19:33:27.436Z,11.17
2022-11-30T19:36:01.415Z,9.10
2022-11-30T19:38:29.623Z,9.60
2022-11-30T19:40:57.719Z,9.20
2022-11-30T19:43:27.243Z,11.43
2022-11-30T19:45:55.482Z,9.47
2022-11-30T19:48:23.612Z,11.17
2022-11-30T19:50:51.707Z,10.47
2022-11-30T19:53:20.308Z,10.20
2022-11-30T19:55:48.466Z,8.90
2022-11-30T19:58:16.598Z,8.90
2022-11-30T20:00:47.911Z,8.50
2022-11-30T20:03:16.358Z,8.43
2022-11-30T20:05:50.135Z,9.03
2022-11-30T20:08:18.300Z,9.03
2022-11-30T20:10:46.539Z,9.93
2022-11-30T20:13:14.694Z,9.43
2022-11-30T20:15:43.016Z,9.10
2022-11-30T20:18:13.030Z,9.47
2022-11-30T20:20:41.197Z,8.20
2022-11-30T20:23:09.324Z,6.70
2022-11-30T20:25:37.455Z,9.17
2022-11-30T20:28:09.651Z,7.33
2022-11-30T20:30:40.516Z,8.40
2022-11-30T20:33:08.700Z,9.00
2022-11-30T20:35:38.261Z,8.73
2022-11-30T20:38:06.422Z,7.87
2022-11-30T20:40:37.564Z,7.53
2022-11-30T20:43:05.950Z,7.17
2022-11-30T20:45:34.100Z,8.57
2022-11-30T20:48:02.638Z,7.17
2022-11-30T20:50:30.869Z,8.57
2022-11-30T20:53:00.329Z,6.77
2022-11-30T20:55:28.461Z,9.43
2022-11-30T20:57:56.627Z,6.87
2022-11-30T21:00:24.940Z,7.00
2022-11-30T21:02:53.046Z,6.20
2022-11-30T21:05:40.110Z,6.00
2022-11-30T21:08:31.640Z,6.37
2022-11-30T21:11:21.297Z,6.73
2022-11-30T21:14:10.427Z,6.80
2022-11-30T21:16:58.826Z,6.00
2022-11-30T21:19:47.242Z,5.80
2022-11-30T21:22:35.639Z,6.37
2022-11-30T21:25:25.399Z,5.50
2022-11-30T21:28:13.800Z,5.90
2022-11-30T21:31:04.273Z,6.93
2022-11-30T21:33:53.805Z,5.73
2022-11-30T21:36:42.508Z,5.50
2022-11-30T21:39:31.053Z,5.53
2022-11-30T21:42:20.834Z,6.37
2022-11-30T21:45:11.090Z,4.90
2022-11-30T21:47:59.498Z,5.57
2022-11-30T21:50:47.924Z,4.83
2022-11-30T21:53:38.102Z,7.27
2022-11-30T21:56:28.188Z,7.20
2022-11-30T21:59:17.948Z,8.87
2022-11-30T22:02:06.358Z,7.40
2022-11-30T22:04:54.765Z,6.80
2022-11-30T22:07:43.391Z,6.33
2022-11-30T22:10:32.649Z,5.20
2022-11-30T22:13:21.181Z,4.50
2022-11-30T22:16:14.082Z,6.57
2022-11-30T22:19:02.575Z,6.90
2022-11-30T22:21:51.166Z,5.50
2022-11-30T22:24:39.728Z,5.77
2022-11-30T22:27:28.101Z,6.03
2022-11-30T22:30:16.993Z,6.67
2022-11-30T22:33:06.727Z,4.83
2022-11-30T22:35:55.335Z,5.03
2022-11-30T22:38:43.787Z,5.10
2022-11-30T22:41:32.275Z,7.43
2022-11-30T22:44:20.905Z,4.33
2022-11-30T22:47:09.372Z,5.13
2022-11-30T22:49:59.269Z,4.97
2022-11-30T22:53:03.049Z,6.43
2022-11-30T22:55:51.990Z,7.03
2022-11-30T22:58:40.824Z,5.73
2022-11-30T23:01:30.399Z,6.47
2022-11-30T23:04:20.195Z,6.40
2022-11-30T23:07:10.080Z,8.53
2022-11-30T23:09:58.508Z,7.93
2022-11-30T23:13:01.956Z,11.03
2022-11-30T23:15:50.857Z,9.73
2022-11-30T23:18:41.464Z,9.67
2022-11-30T23:21:32.757Z,9.60
2022-11-30T23:24:25.774Z,8.27
2022-11-30T23:27:14.150Z,10.07
2022-11-30T23:30:02.661Z,9.47
2022-11-30T23:32:55.671Z,9.97
2022-11-30T23:35:44.548Z,9.77
2022-11-30T23:38:33.066Z,10.77
2022-11-30T23:41:22.841Z,10.70
2022-11-30T23:44:11.810Z,10.37
2022-11-30T23:47:00.631Z,10.60
2022-11-30T23:49:49.798Z,11.07
2022-11-30T23:52:38.378Z,11.67
2022-11-30T23:55:26.864Z,11.10
2022-11-30T23:58:16.604Z,10.07
